Terminal Aerodrome Forecast
Issued by NWS El Paso, TX

Home | Current Version | Previous Version | Text Only | Print | Product List | Glossary On
Versions: 1 2 3 4 5 6 7 8 9 10 11 12
000
FTUS44 KEPZ 290500
TAFELP
TAF
KELP 290529Z 2906/3006 27008KT P6SM SKC
     FM291600 26010KT P6SM SKC
     FM292100 26008KT P6SM FEW110 SCT250
     FM300200 28006KT P6SM SCT250=

USA.gov is the U.S. government's official web portal to all federal, state and local government web resources and services.